Aérodrome :
LOGIN :

S'inscrire | Disclaimer

   EN    FR    IT 

 










Légende :    VFR   VFR Marginal   IFR   IFR Intensif   IFR Très Intensif
Visi : 
Plafond : 
>= 8 km
>= 3000ft
5 à 8 km
1000 à 3000 ft
1500m à 5 km
500 à 1000 ft
800 à 1500m
200 à 500 ft
< 800m
< 200 ft
Symboles :   Orages  Brouillard  Fortes neiges  Fortes précipitations  Vent > 20 kt
SIGMETs :   Divers  Orages  Givrage  Turbulence  Onde Orograph.  Cendres Volcan.







- Altitude de l'aérodrome : 194 ft


EBCV - Chièvres

DERNIER METAR :
  • 231555Z AUTO 08006KT 9999 NCD 18/06 Q1022 BLU

METARs EXPIRÉS :
  • 231525Z AUTO 09006KT 9999 NCD 18/08 Q1022 BLU
  • 231455Z AUTO 07005KT 9999 FEW043/// 19/08 Q1022 BLU
  • 231425Z AUTO 05004KT 9999 BKN041/// 19/08 Q1022 BLU
  • 231355Z AUTO 07005KT 9999 FEW040/// 19/08 Q1023 BLU
  • 231325Z AUTO 06003KT 9999 FEW039/// 19/08 Q1023 BLU

TAF TAF EBCV
Valide du 23 à 13h jusqu'au 23 à 22h UTC


231141Z 2313/2322 09005KT 9999 FEW030
TEMPO 2313/2317 SCT020 SCT070 BY EBWM
Pas de NOTAMs connus pour ce terrain.



MET'MAP, la Météo Aéronautique d'un coup d'oeil ! - Copyright ORBIFLY Décembre 2007 - Disclaimer

ORBIFLY MET'MAP TEAM :

Programmation & Développement : Alexandra Zaïnal
Conception & Développement : Baudouin d'Aumeries
Co-Programmation & Développement : Marc-Olivier Méhu
Soutien technique & logistique : Manuel Goepfert

Contact : metmap@orbifly.com




SOURCES & CREDITS :

   NOAA